Time;durP1;ratioP1;P1;durP2;ratioP2;P2;SDS_P1;SDS_P2;PMS_P1;PMS_P2;Temp;Humidity;BMP_temperature;BMP_pressure;BME280_temperature;BME280_humidity;BME280_pressure;Samples;Min_cycle;Max_cycle;Signal;HPM_P1;HPM_P2
2022/04/08 00:01:53;;;;;;;4.50;1.00;;;9.20;82.80;;;8.04;90.43;94388.69;4874108;28;20375;-66
2022/04/08 00:04:19;;;;;;;2.63;0.65;;;9.10;82.80;;;7.94;90.70;94402.28;4871915;28;20719;-66
2022/04/08 00:06:45;;;;;;;3.05;1.00;;;9.00;83.50;;;7.85;89.47;94405.38;4875752;28;20522;-66
2022/04/08 00:09:12;;;;;;;7.93;1.20;;;8.80;83.30;;;7.76;89.57;94415.31;4847777;28;20414;-66
2022/04/08 00:11:37;;;;;;;6.00;1.20;;;8.80;83.10;;;7.70;89.22;94403.09;4866977;28;21373;-67
2022/04/08 00:14:04;;;;;;;5.13;1.33;;;8.80;83.40;;;7.68;89.90;94418.16;4869133;28;20762;-67
2022/04/08 00:16:30;;;;;;;6.63;1.20;;;8.80;83.80;;;7.64;89.98;94432.69;4878070;28;20453;-67
2022/04/08 00:18:57;;;;;;;9.05;1.23;;;8.70;84.40;;;7.57;90.01;94430.13;4897371;28;20379;-66
2022/04/08 00:21:26;;;;;;;6.85;1.15;;;8.60;84.40;;;7.55;90.03;94399.97;4843536;28;20654;-67
2022/04/08 00:23:52;;;;;;;5.63;1.17;;;8.70;83.90;;;7.55;90.05;94415.66;4887824;28;20491;-67
2022/04/08 00:26:18;;;;;;;3.55;1.15;;;8.80;84.10;;;7.54;90.10;94421.91;4856938;28;20434;-67
2022/04/08 00:28:45;;;;;;;4.72;1.20;;;8.80;82.80;;;7.53;89.76;94417.69;4852808;28;20419;-68
2022/04/08 00:31:12;;;;;;;5.90;1.20;;;8.70;82.50;;;7.48;89.60;94428.78;4865145;28;20517;-67
2022/04/08 00:33:38;;;;;;;4.75;1.23;;;8.60;82.80;;;7.46;88.88;94441.25;4879537;28;20423;-69
2022/04/08 00:36:04;;;;;;;7.00;1.45;;;8.60;83.30;;;7.43;88.84;94422.56;4864012;28;20474;-67
2022/04/08 00:38:30;;;;;;;7.47;1.65;;;8.60;82.20;;;7.38;88.88;94428.41;4887176;28;20511;-66
2022/04/08 00:40:56;;;;;;;7.30;1.38;;;8.50;82.80;;;7.31;88.75;94436.31;4852816;28;20403;-68
2022/04/08 00:43:36;;;;;;;6.57;1.73;;;8.40;82.90;;;7.23;88.36;94444.38;4883521;28;20407;-68
2022/04/08 00:46:07;;;;;;;7.68;1.58;;;8.30;81.70;;;7.15;88.28;94439.41;4882478;28;20489;-68
2022/04/08 00:48:33;;;;;;;9.32;1.52;;;8.20;82.10;;;7.11;88.26;94456.50;4874272;28;20301;-69
2022/04/08 00:51:00;;;;;;;6.75;1.30;;;8.30;82.70;;;7.08;88.48;94451.72;4862898;28;20316;-68
2022/04/08 00:53:26;;;;;;;9.30;2.17;;;8.30;82.60;;;7.03;89.07;94454.16;4883171;28;20332;-68
2022/04/08 00:55:52;;;;;;;9.98;1.85;;;8.10;83.80;;;6.99;89.03;94452.94;4850551;28;20365;-67
2022/04/08 00:58:18;;;;;;;9.27;1.52;;;8.20;83.70;;;6.94;89.45;94465.81;4867057;28;20571;-67
2022/04/08 01:00:44;;;;;;;7.78;1.63;;;8.10;83.70;;;6.90;89.13;94465.44;4866761;28;20458;-68
2022/04/08 01:03:10;;;;;;;7.95;1.77;;;8.10;83.60;;;6.86;89.35;94473.91;4869707;28;20568;-67
2022/04/08 01:05:36;;;;;;;4.72;1.50;;;8.00;84.20;;;6.82;89.94;94463.06;4862931;28;20338;-68
2022/04/08 01:08:03;;;;;;;8.82;1.67;;;8.00;83.80;;;6.84;89.50;94465.47;4872672;28;20418;-68
2022/04/08 01:10:29;;;;;;;11.13;1.95;;;8.10;83.40;;;6.82;89.62;94457.03;4894517;28;20316;-67
2022/04/08 01:12:55;;;;;;;8.57;1.80;;;8.00;83.90;;;6.79;89.21;94479.16;4873390;28;20439;-68
2022/04/08 01:15:22;;;;;;;8.75;1.92;;;8.10;83.20;;;6.78;89.51;94468.88;4889287;28;20208;-68
2022/04/08 01:17:49;;;;;;;8.15;1.80;;;8.00;82.70;;;6.76;89.62;94469.88;4893306;28;20487;-68
2022/04/08 01:20:15;;;;;;;8.63;1.52;;;8.00;82.90;;;6.74;89.31;94494.63;4870235;28;20355;-67
2022/04/08 01:22:41;;;;;;;5.22;1.70;;;8.00;83.50;;;6.72;88.88;94480.97;4873994;28;20519;-67
2022/04/08 01:25:09;;;;;;;6.32;1.52;;;7.90;83.00;;;6.71;88.75;94477.53;4869955;28;20348;-68
2022/04/08 01:27:35;;;;;;;8.18;1.50;;;7.90;81.30;;;6.69;88.33;94497.84;4864764;28;20395;-70
2022/04/08 01:30:09;;;;;;;7.22;1.77;;;7.90;82.00;;;6.67;88.47;94502.47;4892232;28;20315;-67
2022/04/08 01:32:36;;;;;;;6.70;1.58;;;7.90;81.90;;;6.65;87.80;94512.34;4849068;28;20473;-69
2022/04/08 01:35:03;;;;;;;7.93;1.25;;;7.90;81.00;;;6.65;86.86;94520.16;4861705;28;20364;-67
2022/04/08 01:37:29;;;;;;;5.40;1.33;;;7.90;81.50;;;6.67;86.81;94523.38;4883219;28;20749;-67
2022/04/08 01:39:55;;;;;;;12.93;1.75;;;7.90;80.30;;;6.67;86.79;94538.25;4854826;28;20314;-67
2022/04/08 01:42:24;;;;;;;8.48;1.42;;;8.00;81.00;;;6.67;86.86;94528.59;4901036;28;20288;-66
2022/04/08 01:44:54;;;;;;;7.00;1.63;;;8.00;81.00;;;6.69;87.13;94536.22;4862205;28;20577;-72
2022/04/08 01:47:21;;;;;;;7.13;1.60;;;8.10;80.90;;;6.70;86.98;94541.25;4888346;28;20362;-68
2022/04/08 01:49:47;;;;;;;6.20;1.98;;;8.10;80.50;;;6.68;86.26;94535.44;4855554;28;20382;-72
2022/04/08 01:52:13;;;;;;;9.52;1.63;;;8.00;79.80;;;6.69;86.20;94531.81;4888796;28;20318;-68
2022/04/08 01:54:39;;;;;;;9.43;1.65;;;8.10;79.80;;;6.69;86.00;94542.25;4879271;28;20647;-67
2022/04/08 01:57:06;;;;;;;10.05;1.10;;;8.00;79.30;;;6.71;86.21;94550.69;4870944;28;20323;-67
2022/04/08 01:59:32;;;;;;;8.15;1.27;;;8.10;80.30;;;6.72;85.49;94551.50;4869302;28;20551;-67
2022/04/08 02:02:02;;;;;;;5.50;1.25;;;8.10;79.40;;;6.72;85.74;94561.94;4869854;28;20371;-70
2022/04/08 02:04:28;;;;;;;7.25;1.58;;;8.00;79.70;;;6.71;85.75;94561.16;4887835;28;20540;-68
2022/04/08 02:06:55;;;;;;;7.15;1.70;;;8.10;80.40;;;6.69;85.73;94550.09;4905826;22;20109;-66
2022/04/08 02:09:22;;;;;;;7.97;1.40;;;7.90;79.00;;;6.67;85.32;94549.50;5031107;28;20052;-66
2022/04/08 02:11:48;;;;;;;8.45;1.45;;;8.00;79.50;;;6.68;85.86;94545.88;4981195;22;20226;-66
2022/04/08 02:14:14;;;;;;;7.85;1.27;;;8.10;79.70;;;6.66;85.24;94547.91;4900678;28;20548;-66
2022/04/08 02:16:40;;;;;;;6.85;1.63;;;8.00;79.60;;;6.66;85.37;94558.34;4900804;28;20442;-66
2022/04/08 02:19:06;;;;;;;10.35;1.88;;;8.00;80.10;;;6.68;85.53;94569.41;4898387;28;20288;-66
2022/04/08 02:21:32;;;;;;;10.02;3.80;;;8.10;79.50;;;6.69;85.05;94578.84;4879102;28;20345;-66
2022/04/08 02:23:58;;;;;;;12.52;2.95;;;8.10;79.10;;;6.69;84.32;94578.84;4881198;28;20272;-66
2022/04/08 02:26:24;;;;;;;7.85;1.80;;;8.10;78.10;;;6.69;84.17;94573.63;4897252;28;20333;-66
2022/04/08 02:28:50;;;;;;;5.03;1.65;;;8.10;78.00;;;6.66;84.28;94576.63;4878836;28;20034;-65
2022/04/08 02:31:16;;;;;;;9.50;2.70;;;8.00;79.20;;;6.67;84.00;94572.22;4889381;28;20338;-66
2022/04/08 02:33:42;;;;;;;12.93;5.72;;;8.10;79.00;;;6.65;84.04;94580.25;4897756;28;20512;-66
2022/04/08 02:36:09;;;;;;;7.85;1.63;;;8.10;78.10;;;6.64;83.31;94576.03;4842926;28;20305;-65
2022/04/08 02:38:35;;;;;;;10.23;2.10;;;8.00;77.40;;;6.65;83.43;94582.06;4875582;28;20358;-64
2022/04/08 02:41:01;;;;;;;11.20;1.65;;;8.00;76.50;;;6.62;83.74;94572.81;4867872;28;20484;-63
2022/04/08 02:43:27;;;;;;;7.05;1.38;;;8.10;76.90;;;6.62;82.55;94570.22;4875955;28;20244;-64
2022/04/08 02:45:53;;;;;;;5.47;1.58;;;8.00;76.90;;;6.60;83.10;94574.03;4880202;28;20370;-64
2022/04/08 02:48:19;;;;;;;7.78;1.20;;;7.90;77.00;;;6.60;82.49;94580.06;4866179;28;20487;-64
2022/04/08 02:50:45;;;;;;;7.45;1.30;;;8.00;76.00;;;6.61;82.04;94586.88;4850728;28;20361;-66
2022/04/08 02:53:11;;;;;;;7.75;1.25;;;8.00;75.70;;;6.60;81.38;94595.75;4878504;28;20337;-66
2022/04/08 02:55:38;;;;;;;8.55;1.40;;;7.90;75.90;;;6.60;82.16;94598.34;4879870;28;20340;-66
2022/04/08 02:58:04;;;;;;;10.70;1.63;;;8.00;76.20;;;6.61;81.49;94586.88;4880367;28;20629;-65
2022/04/08 03:00:30;;;;;;;5.65;1.20;;;8.00;76.00;;;6.61;80.69;94578.25;4875897;28;20340;-66
2022/04/08 03:02:56;;;;;;;9.10;3.03;;;8.10;75.50;;;6.63;81.39;94584.88;4885589;28;20289;-66
2022/04/08 03:05:22;;;;;;;18.40;10.55;;;8.10;76.20;;;6.64;81.42;94601.34;4888420;28;20454;-65
2022/04/08 03:07:48;;;;;;;8.68;2.58;;;8.10;76.10;;;6.65;81.55;94595.94;4883345;28;20416;-65
2022/04/08 03:10:15;;;;;;;7.15;1.63;;;8.10;75.50;;;6.66;81.48;94600.16;4882862;28;20316;-64
2022/04/08 03:12:41;;;;;;;8.48;1.52;;;8.10;75.70;;;6.68;81.11;94602.56;4871272;28;20620;-64
2022/04/08 03:15:07;;;;;;;5.28;0.98;;;8.10;75.50;;;6.68;81.47;94610.41;4897102;28;20693;-64
2022/04/08 03:17:36;;;;;;;6.25;1.20;;;8.10;76.00;;;6.66;81.35;94621.03;4873870;28;20368;-65
2022/04/08 03:20:02;;;;;;;9.25;1.30;;;8.10;76.50;;;6.67;81.20;94622.66;4900319;28;20324;-66
2022/04/08 03:22:28;;;;;;;9.20;1.67;;;8.10;75.70;;;6.66;81.53;94621.03;4885434;28;20321;-64
2022/04/08 03:24:54;;;;;;;9.23;1.85;;;8.10;76.20;;;6.66;81.47;94621.03;4886218;28;20897;-65
2022/04/08 03:27:20;;;;;;;7.65;2.40;;;8.10;76.00;;;6.66;80.89;94615.81;4885327;28;20213;-65
2022/04/08 03:29:48;;;;;;;7.13;2.10;;;8.10;75.80;;;6.63;80.14;94605.78;4856362;28;20367;-66
2022/04/08 03:32:14;;;;;;;7.93;1.95;;;8.00;75.50;;;6.65;80.81;94603.78;4868401;28;20374;-65
2022/04/08 03:34:40;;;;;;;6.95;2.00;;;8.10;74.40;;;6.66;80.28;94618.44;4869038;28;20508;-67
2022/04/08 03:37:06;;;;;;;4.90;1.48;;;8.10;74.60;;;6.68;80.51;94626.88;4880879;28;20643;-67
2022/04/08 03:39:32;;;;;;;11.32;1.50;;;8.10;74.80;;;6.67;79.87;94633.09;4885041;28;20499;-65
2022/04/08 03:41:58;;;;;;;7.68;1.50;;;8.10;75.20;;;6.68;80.53;94645.16;4867481;28;20391;-64
2022/04/08 03:44:24;;;;;;;10.18;1.58;;;8.10;75.80;;;6.68;81.32;94644.34;4887865;28;20679;-65
2022/04/08 03:46:50;;;;;;;6.90;1.30;;;8.10;76.20;;;6.68;81.54;94645.16;4898713;28;20372;-65
2022/04/08 03:49:17;;;;;;;6.20;1.50;;;8.10;76.90;;;6.68;81.24;94653.00;4877195;28;20332;-65
2022/04/08 03:51:44;;;;;;;5.88;1.45;;;8.20;76.80;;;6.70;81.88;94648.38;4891270;28;20811;-65
2022/04/08 03:54:10;;;;;;;8.82;1.92;;;8.20;77.00;;;6.69;82.21;94646.78;4887732;28;20357;-65
2022/04/08 03:56:36;;;;;;;8.68;1.85;;;8.10;77.40;;;6.67;82.10;94651.41;4884978;28;20340;-65
2022/04/08 03:59:03;;;;;;;9.25;1.80;;;8.10;78.10;;;6.68;82.95;94653.00;4883971;28;20475;-65
2022/04/08 04:01:29;;;;;;;6.65;1.55;;;8.20;78.70;;;6.68;83.30;94650.38;4887521;28;20323;-65
2022/04/08 04:03:55;;;;;;;8.40;2.00;;;8.20;79.10;;;6.64;84.02;94653.59;4911234;28;20208;-65
2022/04/08 04:06:21;;;;;;;8.32;1.73;;;8.10;80.20;;;6.59;84.94;94664.66;4865228;28;20321;-65
2022/04/08 04:08:47;;;;;;;7.20;1.60;;;8.10;81.20;;;6.59;85.95;94666.47;4899431;28;20212;-65
2022/04/08 04:11:16;;;;;;;6.97;1.92;;;8.10;81.30;;;6.57;86.50;94653.63;4883941;28;20433;-64
2022/04/08 04:13:45;;;;;;;6.32;2.08;;;8.10;81.60;;;6.56;87.66;94654.59;4883819;28;20627;-64
2022/04/08 04:16:11;;;;;;;5.70;1.35;;;8.10;81.70;;;6.54;86.74;94653.97;4870505;28;20335;-65
2022/04/08 04:18:37;;;;;;;10.85;2.20;;;8.10;81.80;;;6.57;87.35;94661.44;4874622;28;20343;-65
2022/04/08 04:21:03;;;;;;;6.63;1.27;;;8.10;81.40;;;6.60;87.44;94668.06;4874025;28;20778;-65
2022/04/08 04:23:31;;;;;;;7.40;1.75;;;8.20;81.50;;;6.60;87.53;94674.09;4880686;28;20467;-65
2022/04/08 04:25:57;;;;;;;8.68;1.77;;;8.10;81.30;;;6.61;86.86;94674.91;4868099;28;20423;-65
2022/04/08 04:28:24;;;;;;;9.13;1.90;;;8.10;81.30;;;6.64;87.61;94690.97;4886545;28;20352;-65
2022/04/08 04:30:53;;;;;;;7.78;1.60;;;8.20;81.00;;;6.66;87.18;94681.13;4878108;28;20522;-65
2022/04/08 04:33:18;;;;;;;6.55;1.23;;;8.20;81.20;;;6.67;87.96;94679.31;4866247;28;20672;-64
2022/04/08 04:35:45;;;;;;;7.43;1.40;;;8.20;81.40;;;6.68;87.91;94686.97;4885770;28;20217;-65
2022/04/08 04:38:11;;;;;;;4.90;1.48;;;8.20;81.20;;;6.69;88.08;94682.53;4861052;28;20501;-67
2022/04/08 04:40:37;;;;;;;6.45;1.48;;;8.30;81.30;;;6.70;88.00;94684.97;4891677;28;20297;-66
2022/04/08 04:43:03;;;;;;;8.63;1.90;;;8.20;80.90;;;6.70;87.51;94684.16;4867653;28;20259;-65
2022/04/08 04:45:29;;;;;;;9.02;1.45;;;8.20;80.20;;;6.69;87.14;94678.13;4892897;28;20359;-67
2022/04/08 04:47:55;;;;;;;6.47;1.65;;;8.20;79.70;;;6.71;86.94;94681.34;4902333;28;20468;-66
2022/04/08 04:50:21;;;;;;;4.32;1.50;;;8.20;79.40;;;6.72;86.28;94676.91;4868577;28;20301;-66
2022/04/08 04:52:48;;;;;;;4.18;1.25;;;8.20;79.00;;;6.73;84.66;94692.38;4863778;28;20707;-66
2022/04/08 04:55:14;;;;;;;6.30;1.38;;;8.30;76.40;;;6.76;84.05;94689.38;4850465;28;20764;-67
2022/04/08 04:57:40;;;;;;;5.55;1.00;;;8.30;75.40;;;6.78;83.20;94690.97;4858250;28;20408;-67
2022/04/08 05:00:10;;;;;;;5.90;1.00;;;8.20;75.10;;;6.79;82.81;94697.81;4881908;28;20362;-66
2022/04/08 05:02:37;;;;;;;4.03;1.13;;;8.30;75.10;;;6.83;81.91;94701.66;4894205;28;20509;-66
2022/04/08 05:05:03;;;;;;;3.80;0.90;;;8.30;74.10;;;6.84;81.72;94703.28;4898550;28;20444;-66
2022/04/08 05:07:30;;;;;;;5.07;1.00;;;8.40;73.90;;;6.85;81.30;94702.28;4852230;28;20326;-66
2022/04/08 05:09:55;;;;;;;5.05;0.82;;;8.40;72.40;;;6.85;80.27;94710.91;4874854;28;20331;-69
2022/04/08 05:12:22;;;;;;;2.72;0.80;;;8.40;72.50;;;6.87;79.70;94721.16;4865748;28;20386;-66
2022/04/08 05:14:48;;;;;;;5.10;1.63;;;8.40;73.10;;;6.89;79.66;94713.94;4873516;28;20377;-67
2022/04/08 05:17:13;;;;;;;5.05;0.95;;;8.40;73.30;;;6.90;80.08;94726.00;4899622;28;20359;-66
2022/04/08 05:19:40;;;;;;;5.68;1.17;;;8.50;73.60;;;6.92;80.27;94729.22;4865987;28;20330;-66
2022/04/08 05:22:06;;;;;;;6.22;1.17;;;8.40;73.60;;;6.93;80.34;94731.63;4881192;28;20367;-66
2022/04/08 05:24:32;;;;;;;7.10;1.20;;;8.50;73.70;;;6.93;79.82;94736.03;4862716;28;20342;-68
2022/04/08 05:26:58;;;;;;;5.55;0.95;;;8.50;73.00;;;6.94;79.65;94733.22;4880183;28;20385;-65
2022/04/08 05:29:24;;;;;;;3.40;0.90;;;8.40;73.80;;;6.93;79.13;94741.28;4861335;28;20388;-66
2022/04/08 05:31:50;;;;;;;10.80;1.27;;;8.40;73.20;;;6.94;79.65;94742.88;4874091;28;20660;-66
2022/04/08 05:34:16;;;;;;;4.45;0.95;;;8.50;74.30;;;6.95;80.43;94749.72;4868259;28;20474;-68
2022/04/08 05:36:42;;;;;;;3.53;1.00;;;8.50;74.70;;;6.96;79.55;94746.09;4872771;28;20350;-64
2022/04/08 05:39:08;;;;;;;5.43;1.00;;;8.50;74.80;;;6.98;80.61;94738.84;4890039;28;20361;-66
2022/04/08 05:41:34;;;;;;;7.47;1.52;;;8.60;74.70;;;7.00;79.68;94747.31;4884075;28;20503;-69
2022/04/08 05:44:00;;;;;;;6.82;1.20;;;8.60;74.90;;;6.98;80.07;94754.53;4869099;28;20075;-65
2022/04/08 05:46:26;;;;;;;4.95;1.10;;;8.50;73.90;;;6.98;79.81;94755.34;4906893;28;20360;-69
2022/04/08 05:48:52;;;;;;;4.97;0.82;;;8.60;74.10;;;7.01;80.35;94759.38;4919185;28;20359;-67
2022/04/08 05:51:18;;;;;;;5.53;1.10;;;8.60;74.20;;;6.99;80.25;94764.00;4890450;28;20328;-68
2022/04/08 05:53:45;;;;;;;4.00;1.08;;;8.60;74.80;;;6.99;80.06;94764.00;4883214;28;20416;-64
2022/04/08 05:56:11;;;;;;;5.25;1.20;;;8.60;74.80;;;6.97;80.33;94769.41;4862843;28;20293;-62
2022/04/08 05:58:37;;;;;;;4.72;1.02;;;8.50;74.80;;;6.98;80.28;94773.63;4862679;28;20489;-67
2022/04/08 06:01:03;;;;;;;4.75;1.02;;;8.60;74.50;;;6.99;80.37;94771.84;4883099;28;20309;-68
2022/04/08 06:03:29;;;;;;;5.22;0.93;;;8.60;74.80;;;7.02;80.44;94767.03;4865139;28;20240;-66
2022/04/08 06:05:55;;;;;;;4.55;0.98;;;8.60;74.70;;;7.06;80.81;94777.91;4874549;28;20415;-65
2022/04/08 06:08:22;;;;;;;7.05;1.38;;;8.70;74.70;;;7.06;80.54;94773.47;4834003;28;20881;-65
2022/04/08 06:10:48;;;;;;;4.25;1.25;;;8.70;74.60;;;7.07;80.50;94779.50;4865834;28;20330;-65
2022/04/08 06:13:15;;;;;;;6.22;1.33;;;8.60;74.50;;;7.07;80.36;94776.88;4854303;28;20347;-65
2022/04/08 06:15:41;;;;;;;7.25;1.23;;;8.60;74.60;;;7.10;80.56;94784.31;4881203;28;20373;-65
2022/04/08 06:18:09;;;;;;;5.65;0.90;;;8.80;74.70;;;7.11;80.29;94766.84;4903314;28;20563;-66
2022/04/08 06:20:35;;;;;;;5.72;1.38;;;8.70;74.00;;;7.11;80.67;94780.72;4907560;28;20651;-66
2022/04/08 06:23:01;;;;;;;5.13;1.15;;;8.80;74.20;;;7.13;80.21;94783.94;4866597;28;20729;-66
2022/04/08 06:25:27;;;;;;;5.80;1.40;;;8.80;74.20;;;7.16;80.46;94783.53;4881028;28;20588;-66
2022/04/08 06:27:58;;;;;;;4.05;1.02;;;8.80;74.30;;;7.18;80.72;94786.75;4881785;28;20319;-66
2022/04/08 06:30:24;;;;;;;4.40;1.00;;;8.90;74.50;;;7.19;80.60;94783.13;4883824;28;20503;-66
2022/04/08 06:32:50;;;;;;;5.40;1.30;;;8.90;74.60;;;7.22;80.72;94787.16;4867342;28;20599;-67
2022/04/08 06:35:16;;;;;;;6.13;1.27;;;8.90;75.30;;;7.26;80.98;94788.38;4884203;28;20412;-66
2022/04/08 06:37:42;;;;;;;6.18;1.20;;;9.00;75.10;;;7.28;81.62;94796.81;4853003;28;20834;-66
2022/04/08 06:40:09;;;;;;;8.27;1.50;;;9.00;75.50;;;7.27;80.94;94790.78;4924080;28;20053;-65
2022/04/08 06:42:36;;;;;;;5.95;1.73;;;8.90;74.90;;;7.28;81.51;94789.78;4853294;28;20498;-65
2022/04/08 06:45:03;;;;;;;5.60;1.17;;;8.90;75.50;;;7.30;81.29;94792.19;4852993;28;20365;-65
2022/04/08 06:47:29;;;;;;;5.63;1.55;;;9.00;75.20;;;7.29;81.80;94793.19;4886179;28;20390;-64
2022/04/08 06:49:55;;;;;;;5.30;1.55;;;9.00;76.00;;;7.29;81.62;94794.00;4905105;28;20268;-65
2022/04/08 06:52:21;;;;;;;6.65;2.00;;;9.00;75.30;;;7.30;81.24;94795.63;4868134;28;20207;-64
2022/04/08 06:54:47;;;;;;;5.03;1.40;;;9.00;75.80;;;7.33;82.33;94795.22;4868412;28;20408;-66
2022/04/08 06:57:13;;;;;;;10.63;3.33;;;9.10;76.00;;;7.34;82.21;94796.81;4871593;28;20910;-67
2022/04/08 06:59:42;;;;;;;7.13;1.90;;;9.10;76.20;;;7.36;82.28;94800.03;4875659;28;20332;-67
2022/04/08 07:02:09;;;;;;;6.07;1.67;;;9.10;75.70;;;7.41;82.52;94793.41;4883505;28;20326;-67
2022/04/08 07:04:38;;;;;;;6.25;1.85;;;9.10;76.20;;;7.45;83.19;94794.59;4837597;28;20701;-67
2022/04/08 07:07:04;;;;;;;5.93;1.38;;;9.20;76.00;;;7.48;82.26;94791.59;4898770;28;20458;-67
2022/04/08 07:09:32;;;;;;;6.75;1.63;;;9.30;75.50;;;7.48;82.44;94789.78;4860856;28;20354;-64
2022/04/08 07:11:59;;;;;;;5.40;1.20;;;9.20;75.40;;;7.47;82.53;94782.13;4878006;28;20349;-64
2022/04/08 07:14:28;;;;;;;6.72;1.27;;;9.10;75.30;;;7.47;82.59;94789.97;4874878;28;20469;-67
2022/04/08 07:16:54;;;;;;;5.18;1.40;;;9.20;76.40;;;7.51;82.85;94775.50;4874712;28;20400;-64
2022/04/08 07:19:20;;;;;;;5.72;1.15;;;9.30;75.80;;;7.55;82.84;94776.69;4891349;28;20349;-67
2022/04/08 07:21:46;;;;;;;6.18;1.30;;;9.30;75.40;;;7.58;82.91;94773.69;4897563;28;20353;-68
2022/04/08 07:24:12;;;;;;;4.70;1.52;;;9.30;75.40;;;7.61;82.78;94775.88;4868282;28;20381;-64
2022/04/08 07:26:38;;;;;;;8.32;4.70;;;9.40;75.60;;;7.65;83.13;94766.63;4872656;28;20247;-65
2022/04/08 07:29:04;;;;;;;8.05;2.80;;;9.40;76.80;;;7.67;83.11;94775.88;4869127;28;20531;-64
2022/04/08 07:31:31;;;;;;;11.25;6.57;;;9.50;76.00;;;7.74;83.84;94770.66;4892205;28;20375;-65
2022/04/08 07:33:57;;;;;;;13.23;7.68;;;9.70;76.30;;;7.81;84.03;94768.81;4889454;28;20356;-65
2022/04/08 07:36:23;;;;;;;8.40;4.15;;;9.80;76.80;;;7.87;84.23;94762.75;4870953;28;20284;-64
2022/04/08 07:38:49;;;;;;;6.15;2.33;;;9.80;75.70;;;7.90;83.35;94770.19;4873786;28;20447;-65
2022/04/08 07:41:15;;;;;;;6.85;1.55;;;9.70;75.00;;;7.88;82.79;94764.34;4882700;28;20515;-65
2022/04/08 07:43:41;;;;;;;6.03;1.65;;;9.60;74.80;;;7.92;82.92;94768.19;4883715;28;20314;-63
2022/04/08 07:46:07;;;;;;;4.68;1.55;;;9.80;74.90;;;7.97;82.53;94770.19;4847599;28;20302;-63
2022/04/08 07:48:33;;;;;;;6.13;2.03;;;9.90;74.20;;;8.01;82.67;94765.34;4883731;28;20320;-63
2022/04/08 07:50:59;;;;;;;5.13;2.08;;;9.80;74.80;;;8.04;82.39;94764.94;4865658;28;20435;-62
2022/04/08 07:53:25;;;;;;;4.82;1.75;;;10.00;73.60;;;8.07;82.41;94757.47;4880522;28;20421;-61
2022/04/08 07:55:51;;;;;;;6.30;2.10;;;10.00;74.30;;;8.08;81.59;94761.69;4870012;28;20543;-64
2022/04/08 07:58:17;;;;;;;6.90;1.73;;;10.00;73.40;;;8.15;82.31;94754.66;4867433;28;20323;-61
2022/04/08 08:00:43;;;;;;;7.03;1.98;;;10.20;73.40;;;8.23;82.50;94750.97;4883466;28;20328;-61
2022/04/08 08:03:11;;;;;;;6.95;1.58;;;10.30;73.00;;;8.32;82.03;94741.88;4882839;28;20484;-63
2022/04/08 08:05:37;;;;;;;7.75;1.50;;;10.40;72.80;;;8.42;81.71;94737.03;4883906;28;20428;-64
2022/04/08 08:08:05;;;;;;;4.78;1.38;;;10.60;72.10;;;8.48;81.15;94740.63;4871582;28;20357;-66
2022/04/08 08:10:35;;;;;;;5.47;1.50;;;10.60;71.50;;;8.59;81.14;94735.50;4886797;28;20779;-63
2022/04/08 08:13:01;;;;;;;3.33;0.90;;;10.90;72.10;;;8.67;80.44;94738.94;4867538;28;20560;-63
2022/04/08 08:15:27;;;;;;;4.30;1.20;;;10.70;71.10;;;8.68;80.62;94735.28;4867659;28;20431;-64
2022/04/08 08:17:55;;;;;;;5.88;2.75;;;10.70;71.10;;;8.71;79.94;94732.25;4872064;28;20049;-64
2022/04/08 08:20:22;;;;;;;8.82;4.88;;;10.60;70.90;;;8.76;80.50;94721.91;4893499;28;20488;-65
2022/04/08 08:22:48;;;;;;;4.60;2.30;;;10.80;71.60;;;8.81;79.35;94729.94;4883176;28;20815;-66
2022/04/08 08:25:14;;;;;;;4.75;1.40;;;10.80;71.20;;;8.83;79.30;94725.31;4866700;28;20296;-66
2022/04/08 08:27:57;;;;;;;3.92;0.95;;;10.70;71.40;;;8.84;78.21;94719.06;4866726;28;20223;-65
2022/04/08 08:30:23;;;;;;;4.65;1.10;;;10.70;70.20;;;8.84;79.08;94719.06;4852204;28;20487;-65
2022/04/08 08:32:50;;;;;;;4.65;1.30;;;10.80;71.50;;;8.85;78.15;94710.19;4907017;28;20371;-64
2022/04/08 08:35:17;;;;;;;4.20;1.10;;;10.70;70.40;;;8.89;79.29;94721.84;4902841;28;20478;-65
2022/04/08 08:37:43;;;;;;;4.40;1.08;;;10.90;71.00;;;8.93;79.34;94716.97;4868345;28;20433;-65
2022/04/08 08:40:11;;;;;;;4.30;1.10;;;11.00;71.60;;;8.98;79.23;94715.31;4898247;28;20524;-66
2022/04/08 08:42:37;;;;;;;4.18;1.17;;;11.10;71.80;;;9.04;79.91;94711.84;4898953;28;20784;-66
2022/04/08 08:45:05;;;;;;;4.70;1.05;;;11.20;70.50;;;9.07;78.35;94708.81;4867566;28;20392;-64
2022/04/08 08:47:32;;;;;;;6.25;2.97;;;11.00;69.90;;;9.12;79.02;94705.53;4902184;28;20387;-66
2022/04/08 08:49:58;;;;;;;5.15;1.73;;;11.10;70.90;;;9.15;78.46;94705.91;4901163;28;20418;-64
2022/04/08 08:52:25;;;;;;;5.15;1.20;;;11.20;70.60;;;9.19;78.96;94695.78;4918737;28;20498;-64
2022/04/08 08:54:51;;;;;;;3.63;1.25;;;11.20;70.40;;;9.24;79.21;94692.53;4882572;28;20465;-65
2022/04/08 08:57:19;;;;;;;4.28;0.85;;;11.40;69.40;;;9.30;78.64;94687.25;4887747;28;20455;-66
2022/04/08 08:59:45;;;;;;;4.90;1.33;;;11.50;68.60;;;9.42;78.28;94679.44;4883719;28;20700;-66
2022/04/08 09:02:16;;;;;;;4.03;1.08;;;11.80;67.80;;;9.57;78.76;94676.50;4865351;28;20488;-65
2022/04/08 09:04:42;;;;;;;5.22;1.00;;;12.00;68.80;;;9.72;77.74;94675.09;4857467;28;20441;-65
2022/04/08 09:07:29;;;;;;;2.65;0.95;;;12.10;67.80;;;9.92;77.92;94679.34;4852954;28;20361;-65
2022/04/08 09:09:56;;;;;;;3.53;1.13;;;12.50;66.70;;;10.08;77.57;94670.88;4865840;28;20499;-65
2022/04/08 09:12:27;;;;;;;2.65;0.80;;;12.70;65.30;;;10.19;75.19;94662.25;4867429;28;20603;-67
2022/04/08 09:14:58;;;;;;;3.00;0.90;;;12.70;65.10;;;10.34;76.21;94667.94;4872992;28;20568;-66
2022/04/08 09:17:25;;;;;;;5.15;0.85;;;12.90;65.70;;;10.48;76.64;94665.16;4865009;28;20372;-64
2022/04/08 09:19:53;;;;;;;2.25;0.80;;;12.90;65.30;;;10.56;75.13;94654.31;4864697;28;20592;-64
2022/04/08 09:22:20;;;;;;;4.32;0.90;;;12.80;64.60;;;10.63;74.43;94655.00;4879196;28;20379;-67
2022/04/08 09:24:46;;;;;;;2.70;1.10;;;12.90;64.90;;;10.71;74.32;94654.69;4905152;28;20312;-65
2022/04/08 09:27:12;;;;;;;3.75;1.20;;;12.90;63.60;;;10.74;73.73;94646.38;4906819;28;20366;-65
2022/04/08 09:29:42;;;;;;;4.30;1.10;;;13.00;63.70;;;10.77;73.38;94635.38;4862216;28;20293;-66
2022/04/08 09:32:10;;;;;;;2.38;1.00;;;13.00;63.30;;;10.80;73.65;94632.31;4864471;28;20416;-66
2022/04/08 09:34:37;;;;;;;2.42;0.90;;;13.00;62.80;;;10.91;72.60;94631.53;4863426;28;20372;-63
2022/04/08 09:37:15;;;;;;;4.10;1.30;;;13.30;62.90;;;10.98;72.53;94626.16;4853752;28;20416;-67
2022/04/08 09:39:55;;;;;;;2.10;0.77;;;13.20;62.70;;;11.02;71.95;94607.06;4886907;28;20441;-67
2022/04/08 09:42:21;;;;;;;2.88;0.80;;;13.30;62.70;;;11.04;72.32;94610.25;4862597;28;20707;-66
2022/04/08 09:44:47;;;;;;;2.63;0.82;;;13.40;61.70;;;11.06;71.40;94602.13;4864148;28;20493;-66
2022/04/08 09:47:14;;;;;;;2.33;0.80;;;13.30;61.10;;;11.08;70.81;94601.91;4867824;28;20603;-64
2022/04/08 09:49:41;;;;;;;2.25;0.73;;;13.10;61.90;;;11.08;71.23;94586.13;4863498;28;20485;-63
2022/04/08 09:52:08;;;;;;;3.58;1.13;;;13.30;63.00;;;11.11;71.53;94588.31;4873083;28;20338;-62
2022/04/08 09:54:35;;;;;;;4.03;1.20;;;13.30;62.40;;;11.08;70.89;94583.50;4869155;28;20345;-64
2022/04/08 09:57:02;;;;;;;2.17;0.90;;;13.30;61.90;;;11.10;71.73;94579.63;4857023;28;20405;-64
2022/04/08 09:59:32;;;;;;;2.53;0.98;;;13.50;62.70;;;11.16;70.84;94575.28;4897365;28;20560;-63
2022/04/08 10:01:58;;;;;;;3.77;0.80;;;13.60;61.60;;;11.26;71.96;94570.22;4880429;28;20384;-67
2022/04/08 10:04:25;;;;;;;7.47;2.38;;;13.80;63.00;;;11.36;71.96;94559.94;4864507;28;20620;-67
2022/04/08 10:06:51;;;;;;;3.08;1.40;;;13.70;62.20;;;11.39;71.92;94554.19;4869514;28;20505;-63
2022/04/08 10:09:19;;;;;;;3.30;1.35;;;13.70;61.90;;;11.37;70.43;94540.47;4845999;28;20444;-65
2022/04/08 10:11:45;;;;;;;3.38;1.05;;;13.60;59.30;;;11.31;69.81;94542.16;4868292;28;20422;-66
2022/04/08 10:14:43;;;;;;;2.53;0.80;;;13.40;61.30;;;11.25;70.41;94542.28;4895764;28;20444;-67
2022/04/08 10:17:09;;;;;;;1.27;0.50;;;13.50;62.30;;;11.20;70.57;94534.31;4857074;28;20361;-68
2022/04/08 10:19:35;;;;;;;2.95;0.88;;;13.40;62.70;;;11.22;71.43;94532.22;4868553;28;20261;-67
2022/04/08 10:22:02;;;;;;;2.70;1.10;;;13.50;63.20;;;11.22;70.67;94521.72;4892893;28;20583;-67
2022/04/08 10:24:31;;;;;;;2.47;0.57;;;13.40;62.70;;;11.14;70.15;94506.28;4891340;28;20330;-67
2022/04/08 10:27:09;;;;;;;1.65;0.68;;;13.30;61.80;;;11.08;70.63;94515.06;4892930;28;20451;-66
2022/04/08 10:29:36;;;;;;;3.20;0.70;;;13.10;62.10;;;10.98;71.10;94511.22;4887929;28;20368;-67